Time;durP1;ratioP1;P1;durP2;ratioP2;P2;SDS_P1;SDS_P2;PMS_P1;PMS_P2;Temp;Humidity;BMP_temperature;BMP_pressure;BME280_temperature;BME280_humidity;BME280_pressure;Samples;Min_cycle;Max_cycle;Signal;HPM_P1;HPM_P2
2022/07/12 00:00:17;;;;;;;8.40;6.97;;;;;;;15.38;100.00;102240.28;5235939;28;20025;-64
2022/07/12 00:02:48;;;;;;;7.95;6.80;;;;;;;15.32;100.00;102247.94;5232803;28;20033;-65
2022/07/12 00:05:19;;;;;;;7.38;6.50;;;;;;;15.36;100.00;102247.63;5243151;28;20586;-64
2022/07/12 00:07:51;;;;;;;7.95;6.90;;;;;;;15.28;100.00;102248.19;5225443;28;20056;-64
2022/07/12 00:10:22;;;;;;;8.00;6.45;;;;;;;15.29;100.00;102238.28;5221171;28;20087;-64
2022/07/12 00:12:54;;;;;;;7.80;6.97;;;;;;;15.26;100.00;102235.81;5236987;28;20025;-64
2022/07/12 00:15:25;;;;;;;7.95;6.80;;;;;;;15.23;100.00;102225.31;5230032;28;20041;-65
2022/07/12 00:17:56;;;;;;;8.77;7.00;;;;;;;15.24;100.00;102221.63;5233417;28;20219;-64
2022/07/12 00:20:28;;;;;;;7.35;6.65;;;;;;;15.19;100.00;102218.44;5238086;28;20037;-63
2022/07/12 00:23:00;;;;;;;7.07;6.38;;;;;;;15.10;100.00;102212.75;5230443;28;20478;-64
2022/07/12 00:25:31;;;;;;;7.55;6.57;;;;;;;15.11;100.00;102227.06;5235533;28;20471;-63
2022/07/12 00:28:02;;;;;;;7.57;5.88;;;;;;;15.02;100.00;102219.69;5233091;28;20039;-63
2022/07/12 00:30:34;;;;;;;7.22;6.32;;;;;;;15.02;100.00;102222.38;5228929;28;20056;-63
2022/07/12 00:33:05;;;;;;;8.18;6.25;;;;;;;14.92;100.00;102229.38;5234900;28;20083;-64
2022/07/12 00:35:36;;;;;;;7.95;6.50;;;;;;;14.94;100.00;102228.31;5239235;28;20473;-64
2022/07/12 00:38:07;;;;;;;7.00;6.30;;;;;;;14.86;100.00;102223.47;5241191;28;20578;-64
2022/07/12 00:40:39;;;;;;;7.88;5.93;;;;;;;14.77;100.00;102226.84;5238237;28;20083;-64
2022/07/12 00:43:10;;;;;;;9.00;6.40;;;;;;;14.85;100.00;102220.91;5241704;28;20453;-64
2022/07/12 00:45:42;;;;;;;6.43;5.75;;;;;;;14.81;100.00;102227.47;5238611;28;20494;-64
2022/07/12 00:48:13;;;;;;;9.82;5.90;;;;;;;14.73;100.00;102222.66;5235416;28;20029;-64
2022/07/12 00:50:46;;;;;;;8.15;5.75;;;;;;;14.80;100.00;102223.91;5238201;28;20025;-64
2022/07/12 00:53:23;;;;;;;6.65;5.93;;;;;;;14.70;100.00;102223.72;5240627;28;20175;-64
2022/07/12 00:55:55;;;;;;;6.45;5.72;;;;;;;14.72;100.00;102222.75;5236016;28;20036;-64
2022/07/12 00:58:28;;;;;;;7.70;6.38;;;;;;;14.63;100.00;102221.56;5238758;28;20421;-65
2022/07/12 01:00:59;;;;;;;6.75;5.78;;;;;;;14.68;100.00;102217.59;5233539;28;20025;-64
2022/07/12 01:03:30;;;;;;;7.50;5.97;;;;;;;14.65;100.00;102223.22;5241972;28;20055;-64
2022/07/12 01:06:02;;;;;;;6.85;5.53;;;;;;;14.56;100.00;102226.50;5237885;28;20056;-65
2022/07/12 01:08:34;;;;;;;6.72;5.43;;;;;;;14.52;100.00;102222.34;5231326;28;20053;-64
2022/07/12 01:11:06;;;;;;;6.97;5.57;;;;;;;14.56;100.00;102223.81;5236884;28;20029;-64
2022/07/12 01:13:37;;;;;;;7.88;5.80;;;;;;;14.52;100.00;102220.50;5240758;28;20079;-64
2022/07/12 01:16:12;;;;;;;6.30;5.70;;;;;;;14.41;100.00;102231.13;5243821;28;20052;-64
2022/07/12 01:18:46;;;;;;;6.10;5.50;;;;;;;14.42;100.00;102226.63;5229496;28;20029;-65
2022/07/12 01:21:22;;;;;;;6.53;5.75;;;;;;;14.45;100.00;102237.16;5242567;28;22117;-64
2022/07/12 01:23:53;;;;;;;6.78;5.25;;;;;;;14.45;100.00;102234.47;5237536;28;20021;-64
2022/07/12 01:26:25;;;;;;;6.55;5.72;;;;;;;14.38;100.00;102233.19;5234951;28;20040;-64
2022/07/12 01:28:58;;;;;;;8.63;5.03;;;;;;;14.41;100.00;102235.66;5240113;28;20056;-64
2022/07/12 01:31:29;;;;;;;6.13;5.53;;;;;;;14.34;100.00;102237.06;5231478;28;20029;-64
2022/07/12 01:34:02;;;;;;;8.00;5.50;;;;;;;14.36;100.00;102238.66;5228824;28;20028;-65
2022/07/12 01:36:36;;;;;;;6.80;5.30;;;;;;;14.24;100.00;102248.44;5240218;28;20055;-64
2022/07/12 01:39:07;;;;;;;7.70;5.90;;;;;;;14.34;100.00;102242.41;5236235;28;20043;-64
2022/07/12 01:41:39;;;;;;;7.38;5.57;;;;;;;14.35;100.00;102238.78;5227609;28;20491;-64
2022/07/12 01:44:11;;;;;;;6.10;5.43;;;;;;;14.20;100.00;102252.28;5231661;28;20606;-65
2022/07/12 01:46:43;;;;;;;6.95;5.50;;;;;;;14.26;100.00;102243.81;5232725;28;20140;-64
2022/07/12 01:49:14;;;;;;;6.60;5.47;;;;;;;14.19;100.00;102245.22;5229775;28;20049;-64
2022/07/12 01:51:45;;;;;;;6.28;5.32;;;;;;;14.21;100.00;102232.56;5239785;28;20036;-64
2022/07/12 01:54:17;;;;;;;7.63;5.70;;;;;;;14.12;100.00;102231.34;5238067;28;20029;-65
2022/07/12 01:56:48;;;;;;;7.65;5.50;;;;;;;14.06;100.00;102230.94;5231057;28;20140;-65
2022/07/12 01:59:20;;;;;;;8.50;5.50;;;;;;;14.02;100.00;102235.66;5232133;28;20087;-63
2022/07/12 02:01:51;;;;;;;6.15;5.55;;;;;;;14.13;100.00;102232.22;5233088;28;20045;-64
2022/07/12 02:04:23;;;;;;;7.07;5.28;;;;;;;14.09;100.00;102233.38;5236618;28;20048;-64
2022/07/12 02:06:55;;;;;;;6.40;5.15;;;;;;;14.01;100.00;102231.22;5236268;28;21658;-64
2022/07/12 02:09:27;;;;;;;7.22;5.10;;;;;;;14.03;100.00;102233.81;5237956;28;20032;-64
2022/07/12 02:11:59;;;;;;;6.38;5.32;;;;;;;14.05;100.00;102229.19;5237145;28;20061;-63
2022/07/12 02:14:30;;;;;;;6.70;5.95;;;;;;;14.02;100.00;102235.66;5236055;28;20116;-63
2022/07/12 02:17:01;;;;;;;6.22;5.20;;;;;;;14.03;100.00;102225.78;5235577;28;20387;-64
2022/07/12 02:19:33;;;;;;;6.45;5.80;;;;;;;13.91;100.00;102230.16;5229754;28;20353;-64
2022/07/12 02:22:04;;;;;;;5.95;5.35;;;;;;;13.87;100.00;102223.28;5241006;28;20017;-64
2022/07/12 02:24:35;;;;;;;7.63;5.70;;;;;;;13.84;100.00;102220.81;5233702;28;20553;-64
2022/07/12 02:27:07;;;;;;;7.53;5.72;;;;;;;13.84;100.00;102224.34;5231286;28;20715;-64
2022/07/12 02:29:38;;;;;;;7.38;5.45;;;;;;;13.77;100.00;102224.84;5224499;28;20544;-63
2022/07/12 02:32:09;;;;;;;6.75;5.47;;;;;;;13.85;100.00;102226.06;5221080;28;20037;-64
2022/07/12 02:34:40;;;;;;;5.97;5.40;;;;;;;13.83;100.00;102237.88;5223416;28;20513;-63
2022/07/12 02:37:12;;;;;;;6.50;5.70;;;;;;;13.81;100.00;102224.56;5229596;28;20175;-65
2022/07/12 02:39:43;;;;;;;7.22;6.10;;;;;;;13.77;100.00;102228.44;5228035;28;20041;-64
2022/07/12 02:42:14;;;;;;;7.03;5.65;;;;;;;13.67;100.00;102230.00;5231079;28;20083;-64
2022/07/12 02:44:46;;;;;;;7.22;5.70;;;;;;;13.72;100.00;102225.19;5229117;28;20040;-64
2022/07/12 02:47:17;;;;;;;6.40;5.00;;;;;;;13.68;100.00;102229.88;5225191;28;20033;-64
2022/07/12 02:49:48;;;;;;;7.80;5.68;;;;;;;13.70;100.00;102224.44;5236697;28;20029;-65
2022/07/12 02:52:19;;;;;;;7.10;5.47;;;;;;;13.53;100.00;102231.78;5230308;28;20470;-65
2022/07/12 02:54:51;;;;;;;6.40;5.70;;;;;;;13.68;100.00;102231.72;5228691;28;20035;-65
2022/07/12 02:57:22;;;;;;;8.48;6.10;;;;;;;13.62;100.00;102229.47;5225848;28;20035;-64
2022/07/12 02:59:53;;;;;;;8.73;6.47;;;;;;;13.55;100.00;102237.03;5233701;28;20064;-64
2022/07/12 03:02:24;;;;;;;8.30;6.10;;;;;;;13.58;100.00;102227.94;5227439;28;20040;-64
2022/07/12 03:04:57;;;;;;;7.60;6.68;;;;;;;13.64;100.00;102232.91;5231666;28;20504;-64
2022/07/12 03:07:28;;;;;;;8.10;6.40;;;;;;;13.53;100.00;102231.78;5236541;28;20586;-64
2022/07/12 03:10:00;;;;;;;9.27;6.63;;;;;;;13.44;100.00;102227.06;5236887;28;20031;-64
2022/07/12 03:12:31;;;;;;;9.43;6.95;;;;;;;13.50;100.00;102226.63;5234613;28;20029;-64
2022/07/12 03:15:03;;;;;;;8.85;6.40;;;;;;;13.50;100.00;102223.97;5231156;28;20033;-65
2022/07/12 03:17:35;;;;;;;8.45;6.70;;;;;;;13.49;100.00;102222.22;5229080;28;20041;-64
2022/07/12 03:20:08;;;;;;;7.78;6.70;;;;;;;13.51;100.00;102222.97;5231792;28;20042;-64
2022/07/12 03:22:40;;;;;;;8.05;6.85;;;;;;;13.34;100.00;102225.94;5231644;28;20423;-64
2022/07/12 03:25:12;;;;;;;7.13;6.28;;;;;;;13.43;100.00;102228.00;5228595;28;20032;-64
2022/07/12 03:27:44;;;;;;;7.20;6.43;;;;;;;13.44;100.00;102219.00;5228995;28;20042;-65
2022/07/12 03:30:16;;;;;;;7.43;6.65;;;;;;;13.42;100.00;102226.25;5229362;28;20035;-64
2022/07/12 03:32:47;;;;;;;8.40;6.63;;;;;;;13.31;100.00;102220.78;5238950;28;20873;-64
2022/07/12 03:35:18;;;;;;;7.43;6.45;;;;;;;13.35;100.00;102222.28;5231619;28;20025;-64
2022/07/12 03:37:51;;;;;;;8.35;6.65;;;;;;;13.27;100.00;102222.78;5228749;28;20025;-64
2022/07/12 03:40:22;;;;;;;8.13;6.82;;;;;;;13.26;100.00;102222.88;5236006;28;20032;-64
2022/07/12 03:42:54;;;;;;;8.70;7.28;;;;;;;13.34;100.00;102232.13;5232751;28;20055;-64
2022/07/12 03:45:25;;;;;;;9.52;7.13;;;;;;;13.19;100.00;102234.94;5231684;28;20391;-65
2022/07/12 03:47:56;;;;;;;9.25;7.85;;;;;;;13.24;100.00;102231.00;5236753;28;20367;-65
2022/07/12 03:50:27;;;;;;;9.63;7.53;;;;;;;13.27;100.00;102225.44;5227559;28;20025;-64
2022/07/12 03:52:59;;;;;;;8.90;7.97;;;;;;;13.26;100.00;102233.59;5238618;28;20029;-65
2022/07/12 03:55:30;;;;;;;8.73;7.80;;;;;;;13.29;100.00;102228.03;5237991;28;20025;-65
2022/07/12 03:58:01;;;;;;;8.48;7.57;;;;;;;13.27;100.00;102235.28;5243512;28;20052;-64
2022/07/12 04:00:33;;;;;;;10.13;8.15;;;;;;;13.20;100.00;102231.31;5240922;28;20045;-64
2022/07/12 04:03:04;;;;;;;9.23;8.00;;;;;;;13.25;100.00;102231.84;5240573;28;20065;-64
2022/07/12 04:05:36;;;;;;;10.75;8.00;;;;;;;13.27;100.00;102220.09;5242681;28;20494;-65
2022/07/12 04:08:08;;;;;;;9.15;8.05;;;;;;;13.23;100.00;102220.38;5238497;28;20033;-64
2022/07/12 04:10:39;;;;;;;10.05;8.23;;;;;;;13.23;100.00;102218.56;5240908;28;20039;-64
2022/07/12 04:13:10;;;;;;;9.65;8.27;;;;;;;13.27;100.00;102216.53;5239570;28;20100;-64
2022/07/12 04:15:42;;;;;;;8.82;7.93;;;;;;;13.27;100.00;102216.53;5237352;28;20064;-64
2022/07/12 04:18:13;;;;;;;9.20;8.30;;;;;;;13.21;100.00;102225.84;5234935;28;20033;-65
2022/07/12 04:20:45;;;;;;;10.02;8.25;;;;;;;13.33;100.00;102225.06;5256309;28;20079;-64
2022/07/12 04:23:16;;;;;;;9.60;8.35;;;;;;;13.36;100.00;102234.72;5231266;28;20024;-64
2022/07/12 04:25:47;;;;;;;10.25;8.82;;;;;;;13.30;100.00;102230.63;5237706;28;20033;-64
2022/07/12 04:28:18;;;;;;;10.02;8.77;;;;;;;13.34;100.00;102231.28;5234694;28;20128;-64
2022/07/12 04:30:50;;;;;;;10.20;9.20;;;;;;;13.28;100.00;102229.84;5239390;28;21274;-64
2022/07/12 04:33:22;;;;;;;9.82;8.77;;;;;;;13.35;100.00;102233.03;5237616;28;20123;-65
2022/07/12 04:35:53;;;;;;;10.63;9.52;;;;;;;13.47;100.00;102234.88;5235040;28;20021;-64
2022/07/12 04:38:24;;;;;;;9.70;8.75;;;;;;;13.56;100.00;102245.94;5232676;28;20036;-64
2022/07/12 04:40:55;;;;;;;11.23;9.20;;;;;;;13.56;100.00;102252.19;5231826;28;20041;-65
2022/07/12 04:43:27;;;;;;;10.27;9.27;;;;;;;13.57;100.00;102247.69;5239584;28;20055;-65
2022/07/12 04:46:08;;;;;;;10.77;9.68;;;;;;;13.63;100.00;102250.78;5235415;28;20060;-64
2022/07/12 04:48:42;;;;;;;12.55;11.25;;;;;;;13.69;100.00;102236.09;5236745;28;20063;-65
2022/07/12 04:51:16;;;;;;;10.90;9.60;;;;;;;13.64;100.00;102247.16;5235104;28;20390;-65
2022/07/12 04:53:48;;;;;;;11.02;9.70;;;;;;;13.68;100.00;102250.50;5234577;28;20075;-65
2022/07/12 04:56:19;;;;;;;12.55;9.68;;;;;;;13.82;100.00;102253.09;5239223;28;20918;-64
2022/07/12 04:58:51;;;;;;;11.63;9.75;;;;;;;13.77;100.00;102249.88;5236200;28;20550;-64
2022/07/12 05:01:22;;;;;;;10.63;9.50;;;;;;;13.82;100.00;102245.03;5233012;28;20040;-64
2022/07/12 05:03:53;;;;;;;11.18;9.98;;;;;;;13.86;100.00;102248.38;5226960;28;20037;-64
2022/07/12 05:06:25;;;;;;;12.25;9.85;;;;;;;13.90;100.00;102241.84;5223622;28;20064;-64
2022/07/12 05:08:56;;;;;;;12.65;9.93;;;;;;;13.98;100.00;102257.41;5222700;28;20423;-64
2022/07/12 05:11:27;;;;;;;14.35;10.13;;;;;;;14.13;100.00;102251.00;5230552;28;20049;-65
2022/07/12 05:13:59;;;;;;;12.82;11.00;;;;;;;14.11;100.00;102255.59;5242233;28;20124;-64
2022/07/12 05:16:31;;;;;;;12.73;11.38;;;;;;;14.13;100.00;102267.09;5241914;28;20032;-64
2022/07/12 05:19:02;;;;;;;11.43;10.32;;;;;;;14.19;100.00;102266.69;5239504;28;20025;-64
2022/07/12 05:21:34;;;;;;;12.27;10.98;;;;;;;14.24;100.00;102269.91;5249822;28;20040;-64
2022/07/12 05:24:06;;;;;;;13.60;11.63;;;;;;;14.40;100.00;102268.84;5233076;28;20135;-64
2022/07/12 05:26:37;;;;;;;15.85;11.32;;;;;;;14.42;100.00;102274.97;5236501;28;20029;-65
2022/07/12 05:29:09;;;;;;;12.98;10.60;;;;;;;14.46;100.00;102279.16;5241340;28;20080;-64
2022/07/12 05:31:40;;;;;;;15.40;13.80;;;;;;;14.53;100.00;102277.75;5233134;28;20028;-64
2022/07/12 05:34:11;;;;;;;14.65;12.40;;;;;;;14.68;100.00;102287.44;5253240;28;20703;-64
2022/07/12 05:36:43;;;;;;;12.25;11.05;;;;;;;14.66;100.00;102294.75;5241872;28;20493;-65
2022/07/12 05:39:14;;;;;;;13.13;11.73;;;;;;;14.66;100.00;102294.75;5247973;28;20099;-65
2022/07/12 05:41:46;;;;;;;14.75;13.35;;;;;;;14.78;100.00;102293.03;5239076;28;20099;-64
2022/07/12 05:44:18;;;;;;;14.55;13.02;;;;;;;14.91;100.00;102295.69;5250887;28;20040;-64
2022/07/12 05:46:51;;;;;;;14.77;12.82;;;;;;;14.96;100.00;102307.00;5237969;28;20482;-65
2022/07/12 05:49:22;;;;;;;14.88;12.50;;;;;;;15.02;100.00;102306.53;5243525;28;20036;-64
2022/07/12 05:54:43;;;;;;;16.70;14.50;;;;;;;15.31;100.00;102314.31;5243456;28;20068;-64
2022/07/12 05:57:15;;;;;;;14.48;13.07;;;;;;;15.40;100.00;102318.19;5237393;28;20547;-64
2022/07/12 05:59:47;;;;;;;15.93;12.80;;;;;;;15.61;100.00;102318.38;5239595;28;20540;-65
2022/07/12 06:02:18;;;;;;;13.95;12.50;;;;;;;15.76;100.00;102316.44;5248514;28;20025;-65
2022/07/12 06:04:49;;;;;;;13.35;11.95;;;;;;;15.76;100.00;102314.63;5249423;28;20029;-64
2022/07/12 06:07:21;;;;;;;14.98;12.15;;;;;;;15.86;100.00;102312.09;5242460;28;20035;-65
2022/07/12 06:09:52;;;;;;;16.00;13.57;;;;;;;15.93;100.00;102318.69;5232976;28;20124;-64
2022/07/12 06:12:23;;;;;;;13.60;12.20;;;;;;;16.09;100.00;102323.81;5229622;28;20037;-64
2022/07/12 06:14:55;;;;;;;13.77;12.32;;;;;;;16.08;100.00;102322.91;5227984;28;20286;-64
2022/07/12 06:17:26;;;;;;;14.18;12.77;;;;;;;16.18;100.00;102320.38;5229443;28;20040;-65
2022/07/12 06:19:58;;;;;;;22.70;12.27;;;;;;;16.23;100.00;102318.19;5229793;28;20029;-64
2022/07/12 06:22:29;;;;;;;15.40;13.10;;;;;;;16.45;100.00;102322.78;5239572;28;20033;-64
2022/07/12 06:25:00;;;;;;;15.50;13.07;;;;;;;16.71;100.00;102322.56;5238442;28;20459;-64
2022/07/12 06:27:32;;;;;;;14.55;12.98;;;;;;;16.96;100.00;102326.03;5235347;28;20035;-65
2022/07/12 06:30:03;;;;;;;13.60;12.18;;;;;;;17.18;100.00;102327.84;5233348;28;20040;-64
2022/07/12 06:32:35;;;;;;;13.00;11.60;;;;;;;17.34;100.00;102320.25;5245454;28;20029;-65
2022/07/12 06:35:06;;;;;;;13.70;11.70;;;;;;;17.49;100.00;102322.66;5266917;28;20028;-65
2022/07/12 06:37:37;;;;;;;12.48;11.13;;;;;;;17.68;100.00;102325.56;5237292;28;20593;-64
2022/07/12 06:40:10;;;;;;;13.00;11.60;;;;;;;17.82;100.00;102333.34;5246222;28;20107;-65
2022/07/12 06:42:41;;;;;;;13.57;12.27;;;;;;;17.96;100.00;102324.13;5227054;28;20120;-64
2022/07/12 06:45:12;;;;;;;13.73;10.77;;;;;;;18.12;100.00;102326.41;5229787;28;20422;-63
2022/07/12 06:47:44;;;;;;;14.80;11.10;;;;;;;18.19;100.00;102330.25;5231675;28;20033;-64
2022/07/12 06:50:15;;;;;;;12.75;11.48;;;;;;;18.38;100.00;102331.41;5247431;28;20033;-64
2022/07/12 06:52:47;;;;;;;12.50;11.30;;;;;;;18.41;100.00;102336.56;5238579;28;20037;-64
2022/07/12 06:55:18;;;;;;;15.50;12.23;;;;;;;18.55;100.00;102332.66;5238902;28;20087;-64
2022/07/12 06:57:49;;;;;;;14.90;11.95;;;;;;;18.69;100.00;102342.25;5230308;28;20148;-63
2022/07/12 07:00:21;;;;;;;15.65;12.30;;;;;;;18.80;100.00;102331.38;5235244;28;20029;-64
2022/07/12 07:02:52;;;;;;;14.32;12.55;;;;;;;18.88;100.00;102333.41;5249191;28;20037;-64
2022/07/12 07:05:24;;;;;;;12.63;10.73;;;;;;;19.11;100.00;102325.97;5248448;28;20033;-64
2022/07/12 07:07:55;;;;;;;15.05;11.80;;;;;;;19.10;100.00;102330.53;5245725;28;20017;-64
2022/07/12 07:10:26;;;;;;;13.68;10.82;;;;;;;19.33;100.00;102339.28;5241070;28;20411;-64
2022/07/12 07:12:57;;;;;;;12.60;10.48;;;;;;;19.42;98.97;102331.31;5245828;28;20363;-64
2022/07/12 07:15:29;;;;;;;10.35;8.48;;;;;;;19.57;98.17;102332.63;5244215;28;20486;-64
2022/07/12 07:18:00;;;;;;;10.50;8.82;;;;;;;19.76;95.85;102329.97;5244491;28;20056;-64
2022/07/12 07:20:32;;;;;;;10.65;9.55;;;;;;;19.90;94.97;102330.53;5260047;28;20025;-64
2022/07/12 07:23:03;;;;;;;11.30;9.00;;;;;;;20.03;93.76;102333.81;5255004;28;20163;-64
2022/07/12 07:25:34;;;;;;;12.50;9.27;;;;;;;20.20;91.55;102320.56;5248626;28;20037;-64
2022/07/12 07:28:06;;;;;;;11.38;8.40;;;;;;;20.34;91.05;102322.81;5256449;28;20482;-64
2022/07/12 07:30:52;;;;;;;7.65;6.00;;;;;;;20.56;90.64;102324.34;5247126;28;20503;-64
2022/07/12 07:33:25;;;;;;;6.53;4.75;;;;;;;20.82;87.83;102334.56;5252105;28;20021;-64
2022/07/12 07:35:56;;;;;;;5.75;4.75;;;;;;;21.01;85.77;102334.47;5248230;28;20068;-64
2022/07/12 07:38:27;;;;;;;6.18;5.57;;;;;;;21.12;83.37;102334.28;5241307;28;20091;-64
2022/07/12 07:40:58;;;;;;;6.50;5.05;;;;;;;21.34;84.01;102327.59;5247514;28;20028;-64
2022/07/12 07:43:30;;;;;;;7.75;5.68;;;;;;;21.43;82.41;102330.41;5245323;28;20028;-64
2022/07/12 07:46:01;;;;;;;5.30;4.10;;;;;;;21.42;81.99;102324.13;5246108;28;20086;-65
2022/07/12 07:48:32;;;;;;;4.72;4.00;;;;;;;21.35;82.76;102321.16;5247905;28;20027;-64
2022/07/12 07:51:04;;;;;;;3.78;3.13;;;;;;;21.50;79.39;102321.50;5252760;28;20182;-65
2022/07/12 07:53:35;;;;;;;6.20;3.90;;;;;;;21.58;78.87;102325.34;5245709;28;20029;-64
2022/07/12 07:56:07;;;;;;;4.32;3.30;;;;;;;21.66;78.83;102317.25;5257413;28;20036;-64
2022/07/12 07:58:38;;;;;;;3.80;3.10;;;;;;;21.85;78.76;102318.97;5268928;28;20560;-65
2022/07/12 08:01:09;;;;;;;6.28;4.00;;;;;;;21.94;76.10;102323.47;5252014;28;20029;-64
2022/07/12 08:03:40;;;;;;;4.13;3.72;;;;;;;22.03;75.44;102322.50;5252724;28;20553;-64
2022/07/12 08:06:13;;;;;;;5.22;4.25;;;;;;;22.25;74.48;102325.78;5247181;28;20849;-64
2022/07/12 08:08:44;;;;;;;5.85;4.18;;;;;;;22.30;74.79;102326.16;5248984;28;20029;-63
2022/07/12 08:11:15;;;;;;;4.53;3.80;;;;;;;22.33;74.37;102328.56;5256055;28;20027;-64
2022/07/12 08:13:47;;;;;;;5.28;3.90;;;;;;;22.47;73.43;102330.69;5251440;28;20111;-64
2022/07/12 08:16:18;;;;;;;4.50;3.63;;;;;;;22.45;73.59;102321.00;5253159;28;20565;-64
2022/07/12 08:18:49;;;;;;;5.45;4.28;;;;;;;22.61;72.64;102326.56;5251279;28;20031;-64
2022/07/12 08:21:21;;;;;;;5.28;4.13;;;;;;;22.69;73.11;102332.03;5255447;28;20137;-64
2022/07/12 08:23:53;;;;;;;5.78;4.00;;;;;;;22.74;73.49;102330.69;5244818;28;20056;-63
2022/07/12 08:26:24;;;;;;;5.85;4.78;;;;;;;22.74;71.10;102326.09;5256635;28;20041;-64
2022/07/12 08:28:55;;;;;;;4.90;3.90;;;;;;;22.95;72.63;102325.69;5255472;28;20074;-64
2022/07/12 08:31:27;;;;;;;5.43;4.50;;;;;;;23.08;69.95;102336.19;5249562;28;20715;-64
2022/07/12 08:33:58;;;;;;;5.68;4.50;;;;;;;23.13;69.42;102342.00;5252479;28;20466;-63
2022/07/12 08:36:29;;;;;;;5.10;3.92;;;;;;;23.24;73.10;102340.81;5263431;28;20116;-64
2022/07/12 08:39:01;;;;;;;6.13;4.60;;;;;;;23.18;70.83;102345.06;5249911;28;20086;-64
2022/07/12 08:41:32;;;;;;;6.03;4.30;;;;;;;23.40;69.80;102342.78;5240826;28;20032;-63
2022/07/12 08:44:03;;;;;;;5.30;4.28;;;;;;;23.31;68.49;102341.88;5251163;28;20025;-64
2022/07/12 08:46:35;;;;;;;5.30;4.72;;;;;;;23.45;66.47;102345.81;5241145;28;20035;-64
2022/07/12 08:49:09;;;;;;;4.70;3.78;;;;;;;23.32;67.69;102357.22;5239331;28;20353;-64
2022/07/12 08:51:41;;;;;;;5.47;3.97;;;;;;;23.44;68.77;102355.88;5238119;28;20125;-63
2022/07/12 08:54:13;;;;;;;4.60;3.85;;;;;;;23.25;69.30;102357.00;5247398;28;20036;-64
2022/07/12 08:56:44;;;;;;;4.03;3.13;;;;;;;23.11;68.48;102346.75;5240241;28;20058;-64
2022/07/12 08:59:19;;;;;;;3.63;2.78;;;;;;;23.04;70.39;102351.13;5246106;28;20037;-64
2022/07/12 09:01:52;;;;;;;7.00;3.83;;;;;;;23.32;70.18;102361.78;5242643;28;20033;-63
2022/07/12 09:04:27;;;;;;;6.07;3.63;;;;;;;23.28;69.07;102356.69;5253977;28;20032;-63
2022/07/12 09:07:13;;;;;;;6.57;4.93;;;;;;;23.33;69.93;102360.78;5239658;28;20400;-63
2022/07/12 09:09:44;;;;;;;5.07;3.83;;;;;;;23.37;69.52;102348.53;5247416;28;20468;-65
2022/07/12 09:12:22;;;;;;;5.03;3.92;;;;;;;23.45;68.78;102352.16;5249114;28;20031;-64
2022/07/12 09:14:54;;;;;;;7.20;4.93;;;;;;;23.34;66.82;102357.03;5250349;28;20037;-64
2022/07/12 09:17:25;;;;;;;10.20;4.38;;;;;;;23.37;68.22;102349.38;5265137;28;20498;-64
2022/07/12 09:19:57;;;;;;;7.10;3.53;;;;;;;23.29;69.21;102349.34;5243489;28;20025;-64
2022/07/12 09:22:28;;;;;;;6.30;4.22;;;;;;;23.47;67.01;102343.78;5243058;28;20035;-64
2022/07/12 09:25:20;;;;;;;5.30;3.28;;;;;;;23.49;68.03;102348.06;5244028;28;20741;-64
2022/07/12 09:27:56;;;;;;;4.43;3.13;;;;;;;23.51;65.48;102345.19;5242676;28;20122;-64
2022/07/12 09:30:28;;;;;;;4.95;3.40;;;;;;;23.76;65.61;102337.91;5238753;28;20433;-64
2022/07/12 09:36:07;;;;;;;7.45;3.65;;;;;;;24.09;63.31;102332.50;5248622;28;20398;-63
2022/07/12 09:39:01;;;;;;;5.28;3.88;;;;;;;24.27;64.22;102329.59;5248310;28;20479;-64
2022/07/12 09:41:33;;;;;;;6.25;3.90;;;;;;;24.45;63.75;102322.06;5257023;28;20025;-64
2022/07/12 09:44:05;;;;;;;5.22;3.80;;;;;;;24.46;62.35;102331.09;5246188;28;20086;-64
2022/07/12 09:46:37;;;;;;;6.57;4.00;;;;;;;24.42;59.61;102329.75;5263189;28;20456;-64
2022/07/12 09:49:08;;;;;;;4.38;2.80;;;;;;;24.62;61.10;102330.25;5250395;28;20040;-64
2022/07/12 09:51:42;;;;;;;4.75;3.30;;;;;;;24.59;59.76;102331.44;5248051;28;20029;-64
2022/07/12 09:54:22;;;;;;;3.42;2.47;;;;;;;24.54;61.39;102335.72;5240575;28;20180;-64
2022/07/12 09:56:57;;;;;;;3.97;3.17;;;;;;;24.58;61.59;102331.63;5238990;28;20052;-64
2022/07/12 09:59:29;;;;;;;3.60;2.85;;;;;;;24.73;60.75;102326.31;5258603;28;20086;-64
2022/07/12 10:02:00;;;;;;;6.13;3.20;;;;;;;24.80;61.03;102322.69;5248628;28;20025;-64
2022/07/12 10:04:32;;;;;;;4.45;3.15;;;;;;;24.48;60.65;102320.03;5235035;28;20487;-63
2022/07/12 10:07:04;;;;;;;5.18;2.78;;;;;;;24.59;61.13;102327.88;5245808;28;20029;-64
2022/07/12 10:09:36;;;;;;;4.50;2.75;;;;;;;24.74;61.61;102317.94;5235361;28;20033;-64
2022/07/12 10:12:09;;;;;;;4.15;2.78;;;;;;;24.89;61.56;102318.06;5247413;28;20031;-64
2022/07/12 10:14:41;;;;;;;;;;;;;;;24.92;64.72;102312.22;5248180;28;20597;-64
2022/07/12 10:17:13;;;;;;;3.97;2.92;;;;;;;24.92;60.50;102305.94;5251832;28;19916;-64
2022/07/12 10:19:44;;;;;;;3.88;2.97;;;;;;;25.07;58.78;102304.16;5242352;28;20033;-64
2022/07/12 10:22:20;;;;;;;4.10;2.90;;;;;;;25.07;59.53;102301.44;5243566;28;20025;-64
2022/07/12 10:24:52;;;;;;;3.28;2.60;;;;;;;25.32;57.81;102309.53;5241935;28;20029;-64
2022/07/12 10:27:29;;;;;;;3.60;2.90;;;;;;;25.12;59.88;102301.75;5249031;28;20025;-64
2022/07/12 10:30:15;;;;;;;3.60;2.53;;;;;;;25.35;59.92;102299.09;5251021;28;20090;-64
2022/07/12 10:32:48;;;;;;;4.72;2.58;;;;;;;25.55;58.52;102306.81;5248474;28;20029;-64
2022/07/12 10:35:22;;;;;;;4.93;3.43;;;;;;;25.56;57.84;102309.38;5238622;28;20502;-64
2022/07/12 10:38:12;;;;;;;6.38;3.75;;;;;;;25.51;59.69;102305.50;5243888;28;20300;-64
2022/07/12 10:40:47;;;;;;;5.13;3.80;;;;;;;25.55;57.64;102304.09;5244706;28;20033;-64
2022/07/12 10:44:04;;;;;;;6.95;3.05;;;;;;;25.71;57.49;102308.59;5244239;28;20033;-64
2022/07/12 10:46:22;;;;;;;6.53;3.05;;;;;;;25.85;56.01;102304.19;5248879;28;20087;-64
2022/07/12 10:49:29;;;;;;;4.10;3.00;;;;;;;25.94;58.47;102309.44;5246889;28;20068;-64
2022/07/12 10:52:09;;;;;;;5.05;3.60;;;;;;;25.96;56.45;102303.78;5242743;28;20112;-64
2022/07/12 10:54:50;;;;;;;6.03;3.97;;;;;;;25.79;55.83;102298.44;5247988;28;20510;-64
2022/07/12 10:57:42;;;;;;;3.90;3.03;;;;;;;26.29;56.85;102298.91;5242174;28;20029;-64
2022/07/12 11:00:14;;;;;;;4.35;2.78;;;;;;;26.34;53.58;102307.38;5251470;28;20090;-64
2022/07/12 11:02:45;;;;;;;4.38;3.30;;;;;;;26.40;52.70;102301.16;5235398;28;20034;-64
2022/07/12 11:05:24;;;;;;;6.03;2.95;;;;;;;26.37;53.72;102307.00;5245420;28;20461;-64
2022/07/12 11:07:56;;;;;;;5.60;2.60;;;;;;;26.19;51.91;102309.22;5251161;28;20041;-64
2022/07/12 11:10:28;;;;;;;3.40;2.70;;;;;;;26.16;52.77;102302.25;5258334;28;20097;-65
2022/07/12 11:13:00;;;;;;;3.50;2.75;;;;;;;26.44;54.23;102298.88;5243750;28;20028;-64
2022/07/12 11:15:32;;;;;;;3.78;2.85;;;;;;;26.58;53.74;102295.31;5245534;28;20119;-65
2022/07/12 11:18:03;;;;;;;6.10;3.20;;;;;;;26.62;51.57;102294.97;5247009;28;20036;-64
2022/07/12 11:20:34;;;;;;;3.47;2.78;;;;;;;26.74;52.55;102297.03;5244316;28;20032;-64
2022/07/12 11:23:05;;;;;;;3.47;2.65;;;;;;;26.76;51.50;102297.69;5252710;28;20025;-64
2022/07/12 11:25:37;;;;;;;5.03;2.88;;;;;;;26.86;51.69;102302.88;5240881;28;20120;-64
2022/07/12 11:28:10;;;;;;;3.92;2.60;;;;;;;26.97;51.13;102296.09;5245829;28;20043;-64
2022/07/12 11:30:48;;;;;;;6.70;3.67;;;;;;;27.11;51.98;102288.88;5248256;28;20025;-64
2022/07/12 11:33:40;;;;;;;3.75;3.00;;;;;;;27.17;53.58;102288.97;5239186;28;20028;-65
2022/07/12 11:36:13;;;;;;;4.25;2.22;;;;;;;27.29;53.41;102283.88;5239638;28;20120;-64
2022/07/12 11:38:46;;;;;;;4.37;3.10;;;;;;;27.42;50.98;102282.28;5245644;28;20517;-64
2022/07/12 11:41:17;;;;;;;3.70;3.00;;;;;;;27.52;48.92;102269.97;5249699;28;20028;-65
2022/07/12 11:43:48;;;;;;;6.22;3.00;;;;;;;27.24;51.69;102275.34;5243642;28;20495;-64
2022/07/12 11:46:20;;;;;;;5.43;2.78;;;;;;;27.53;51.48;102270.81;5245974;28;20029;-64